createdAt,value
2024-02-20T00:02:03.217Z,31.90
2024-02-20T00:04:30.309Z,31.77
2024-02-20T00:06:57.337Z,30.67
2024-02-20T00:09:24.083Z,35.60
2024-02-20T00:11:50.836Z,43.45
2024-02-20T00:14:17.637Z,35.35
2024-02-20T00:16:44.445Z,31.92
2024-02-20T00:19:11.897Z,40.42
2024-02-20T00:21:41.499Z,37.38
2024-02-20T00:24:08.411Z,33.17
2024-02-20T00:26:35.162Z,27.23
2024-02-20T00:29:02.019Z,31.23
2024-02-20T00:31:30.182Z,39.00
2024-02-20T00:33:57.424Z,37.67
2024-02-20T00:36:24.697Z,37.35
2024-02-20T00:38:51.481Z,32.05
2024-02-20T00:41:19.455Z,36.40
2024-02-20T00:43:46.299Z,40.38
2024-02-20T00:46:23.771Z,37.67
2024-02-20T00:48:52.131Z,42.50
2024-02-20T00:51:20.947Z,41.22
2024-02-20T00:53:48.332Z,43.88
2024-02-20T00:56:15.593Z,30.00
2024-02-20T00:58:45.839Z,35.95
2024-02-20T01:01:14.008Z,31.65
2024-02-20T01:03:43.841Z,36.25
2024-02-20T01:06:11.416Z,28.02
2024-02-20T01:08:40.137Z,49.20
2024-02-20T01:11:07.489Z,43.40
2024-02-20T01:13:34.917Z,41.40
2024-02-20T01:16:02.008Z,29.17
2024-02-20T01:18:28.979Z,32.15
2024-02-20T01:20:55.847Z,29.55
2024-02-20T01:23:22.632Z,41.58
2024-02-20T01:25:49.853Z,37.47
2024-02-20T01:28:16.731Z,41.63
2024-02-20T01:30:44.723Z,35.35
2024-02-20T01:33:11.853Z,48.33
2024-02-20T01:35:39.778Z,38.70
2024-02-20T01:38:06.703Z,39.67
2024-02-20T01:40:33.632Z,47.95
2024-02-20T01:43:01.980Z,38.17
2024-02-20T01:45:30.518Z,40.67
2024-02-20T01:47:59.531Z,38.40
2024-02-20T01:50:26.811Z,31.92
2024-02-20T01:52:54.135Z,40.25
2024-02-20T01:55:22.124Z,34.58
2024-02-20T01:57:49.985Z,50.13
2024-02-20T02:00:18.893Z,36.80
2024-02-20T02:02:46.525Z,45.47
2024-02-20T02:05:14.008Z,35.00
2024-02-20T02:07:41.148Z,36.58
2024-02-20T02:10:08.822Z,30.05
2024-02-20T02:12:35.600Z,42.25
2024-02-20T02:15:02.466Z,32.40
2024-02-20T02:17:29.281Z,44.20
2024-02-20T02:19:56.058Z,45.03
2024-02-20T02:22:23.101Z,36.88
2024-02-20T02:24:49.941Z,40.17
2024-02-20T02:27:17.107Z,28.50
2024-02-20T02:29:43.904Z,30.52
2024-02-20T02:32:10.824Z,34.53
2024-02-20T02:34:37.643Z,38.47
2024-02-20T02:37:04.578Z,37.15
2024-02-20T02:39:31.296Z,39.90
2024-02-20T02:41:58.132Z,30.92
2024-02-20T02:44:24.987Z,41.78
2024-02-20T02:46:51.867Z,32.13
2024-02-20T02:49:18.772Z,32.72
2024-02-20T02:51:45.598Z,42.00
2024-02-20T02:54:12.382Z,41.42
2024-02-20T02:56:39.383Z,33.90
2024-02-20T02:59:06.263Z,36.42
2024-02-20T03:01:33.200Z,38.33
2024-02-20T03:04:01.162Z,36.00
2024-02-20T03:06:28.205Z,37.33
2024-02-20T03:08:54.951Z,38.70
2024-02-20T03:11:21.951Z,23.40
2024-02-20T03:13:48.883Z,36.25
2024-02-20T03:16:16.629Z,32.35
2024-02-20T03:18:44.191Z,39.55
2024-02-20T03:21:11.027Z,40.63
2024-02-20T03:23:37.821Z,35.17
2024-02-20T03:26:05.347Z,33.47
2024-02-20T03:28:32.558Z,30.42
2024-02-20T03:30:59.891Z,31.42
2024-02-20T03:33:30.233Z,50.75
2024-02-20T03:35:58.670Z,32.50
2024-02-20T03:38:25.936Z,29.38
2024-02-20T03:40:52.864Z,31.98
2024-02-20T03:43:19.730Z,36.00
2024-02-20T03:45:46.463Z,37.33
2024-02-20T03:48:13.481Z,24.33
2024-02-20T03:50:40.528Z,34.00
2024-02-20T03:53:08.269Z,33.80
2024-02-20T03:55:35.494Z,34.28
2024-02-20T03:58:02.640Z,36.40
2024-02-20T04:00:29.746Z,35.65
2024-02-20T04:02:57.863Z,21.58
2024-02-20T04:05:24.937Z,28.77
2024-02-20T04:07:51.748Z,33.00
2024-02-20T04:10:19.176Z,21.63
2024-02-20T04:12:46.539Z,29.08
2024-02-20T04:15:15.227Z,38.92
2024-02-20T04:17:42.491Z,30.92
2024-02-20T04:20:11.388Z,22.50
2024-02-20T04:22:39.129Z,29.40
2024-02-20T04:25:07.453Z,24.10
2024-02-20T04:27:34.976Z,42.08
2024-02-20T04:30:01.781Z,31.23
2024-02-20T04:32:28.592Z,29.45
2024-02-20T04:34:55.520Z,31.17
2024-02-20T04:37:22.452Z,21.73
2024-02-20T04:39:49.194Z,26.98
2024-02-20T04:42:15.977Z,32.03
2024-02-20T04:44:42.793Z,32.83
2024-02-20T04:47:09.635Z,21.95
2024-02-20T04:49:36.486Z,27.45
2024-02-20T04:52:03.444Z,27.70
2024-02-20T04:54:30.235Z,25.73
2024-02-20T04:56:56.910Z,28.55
2024-02-20T04:59:24.245Z,24.17
2024-02-20T05:01:51.957Z,30.17
2024-02-20T05:04:19.330Z,33.83
2024-02-20T05:06:46.564Z,29.50
2024-02-20T05:09:15.071Z,29.92
2024-02-20T05:11:42.640Z,27.40
2024-02-20T05:14:09.466Z,30.80
2024-02-20T05:16:36.339Z,36.28
2024-02-20T05:19:03.287Z,30.65
2024-02-20T05:21:30.198Z,21.75
2024-02-20T05:23:56.932Z,26.75
2024-02-20T05:26:23.844Z,19.30
2024-02-20T05:28:50.574Z,27.63
2024-02-20T05:31:31.386Z,29.20
2024-02-20T05:34:00.733Z,32.45
2024-02-20T05:36:30.899Z,28.48
2024-02-20T05:39:02.694Z,25.60
2024-02-20T05:41:30.693Z,30.58
2024-02-20T05:43:58.788Z,25.95
2024-02-20T05:46:29.934Z,23.67
2024-02-20T05:48:57.231Z,28.10
2024-02-20T05:51:25.105Z,31.27
2024-02-20T05:53:52.679Z,23.73
2024-02-20T05:56:20.568Z,20.65
2024-02-20T05:58:47.315Z,24.85
2024-02-20T06:01:16.108Z,26.58
2024-02-20T06:03:44.453Z,26.05
2024-02-20T06:06:12.517Z,26.42
2024-02-20T06:08:46.143Z,28.52
2024-02-20T06:11:18.958Z,21.50
2024-02-20T06:13:46.387Z,22.65
2024-02-20T06:16:13.322Z,28.92
2024-02-20T06:18:40.304Z,28.30
2024-02-20T06:21:09.771Z,32.25
2024-02-20T06:23:40.633Z,32.20
2024-02-20T06:26:12.420Z,22.67
2024-02-20T06:28:41.484Z,35.25
2024-02-20T06:31:09.167Z,27.02
2024-02-20T06:33:36.375Z,25.55
2024-02-20T06:36:04.233Z,42.80
2024-02-20T06:38:34.254Z,28.65
2024-02-20T06:41:01.306Z,36.47
2024-02-20T06:43:28.787Z,31.38
2024-02-20T06:45:55.924Z,27.33
2024-02-20T06:48:23.540Z,20.98
2024-02-20T06:50:50.467Z,27.17
2024-02-20T06:53:17.246Z,22.42
2024-02-20T06:55:44.324Z,28.70
2024-02-20T06:58:11.823Z,26.17
2024-02-20T07:00:39.149Z,27.92
2024-02-20T07:03:07.482Z,21.60
2024-02-20T07:05:34.837Z,27.77
2024-02-20T07:08:01.785Z,26.23
2024-02-20T07:10:28.676Z,29.30
2024-02-20T07:12:57.797Z,26.85
2024-02-20T07:15:24.701Z,28.13
2024-02-20T07:17:51.529Z,32.88
2024-02-20T07:20:19.169Z,27.60
2024-02-20T07:22:49.935Z,21.83
2024-02-20T07:25:20.277Z,28.55
2024-02-20T07:27:47.249Z,22.45
2024-02-20T07:30:15.217Z,20.10
2024-02-20T07:32:43.294Z,31.92
2024-02-20T07:35:11.454Z,28.85
2024-02-20T07:37:41.999Z,32.58
2024-02-20T07:40:13.246Z,37.10
2024-02-20T07:42:40.826Z,30.83
2024-02-20T07:45:09.074Z,27.80
2024-02-20T07:47:36.877Z,24.42
2024-02-20T07:50:07.706Z,36.63
2024-02-20T07:52:35.065Z,31.27
2024-02-20T07:55:02.528Z,28.88
2024-02-20T07:57:33.410Z,28.52
2024-02-20T08:00:00.428Z,31.27
2024-02-20T08:02:27.393Z,33.15
2024-02-20T08:04:54.246Z,29.73
2024-02-20T08:07:21.100Z,31.92
2024-02-20T08:09:49.768Z,27.77
2024-02-20T08:12:17.403Z,31.42
2024-02-20T08:14:47.498Z,32.90
2024-02-20T08:17:15.348Z,30.35
2024-02-20T08:19:43.126Z,24.42
2024-02-20T08:22:10.149Z,27.95
2024-02-20T08:24:36.941Z,33.80
2024-02-20T08:27:04.221Z,29.70
2024-02-20T08:29:31.015Z,33.17
2024-02-20T08:31:57.817Z,28.52
2024-02-20T08:34:27.864Z,39.25
2024-02-20T08:36:54.799Z,31.45
2024-02-20T08:39:22.188Z,32.88
2024-02-20T08:41:48.991Z,44.55
2024-02-20T08:44:16.007Z,28.88
2024-02-20T08:46:43.146Z,30.15
2024-02-20T08:49:10.118Z,31.75
2024-02-20T08:51:36.850Z,32.30
2024-02-20T08:54:03.650Z,33.83
2024-02-20T08:56:30.384Z,40.95
2024-02-20T08:58:57.239Z,36.47
2024-02-20T09:01:27.260Z,32.50
2024-02-20T09:03:56.173Z,29.55
2024-02-20T09:06:23.515Z,34.70
2024-02-20T09:08:50.437Z,28.52
2024-02-20T09:11:17.216Z,41.47
2024-02-20T09:13:44.056Z,34.67
2024-02-20T09:16:11.000Z,47.28
2024-02-20T09:18:38.115Z,35.63
2024-02-20T09:21:06.301Z,37.40
2024-02-20T09:23:37.465Z,36.00
2024-02-20T09:26:07.891Z,39.80
2024-02-20T09:28:35.066Z,31.27
2024-02-20T09:31:02.264Z,43.75
2024-02-20T09:33:30.497Z,42.75
2024-02-20T09:35:57.312Z,39.35
2024-02-20T09:38:24.180Z,43.67
2024-02-20T09:40:51.149Z,40.17
2024-02-20T09:43:21.476Z,42.97
2024-02-20T09:45:51.058Z,37.05
2024-02-20T09:48:19.373Z,39.22
2024-02-20T09:50:48.939Z,41.78
2024-02-20T09:53:18.532Z,43.95
2024-02-20T09:55:49.626Z,45.83
2024-02-20T09:58:16.430Z,43.00
2024-02-20T10:00:43.344Z,40.78
2024-02-20T10:03:10.463Z,42.58
2024-02-20T10:05:46.951Z,45.28
2024-02-20T10:08:14.155Z,35.70
2024-02-20T10:10:46.063Z,37.50
2024-02-20T10:13:13.503Z,31.45
2024-02-20T10:15:40.557Z,36.10
2024-02-20T10:18:08.423Z,44.08
2024-02-20T10:20:35.383Z,34.60
2024-02-20T10:23:14.549Z,38.08
2024-02-20T10:25:41.991Z,43.50
2024-02-20T10:28:09.260Z,41.42
2024-02-20T10:30:36.679Z,44.38
2024-02-20T10:33:03.953Z,43.90
2024-02-20T10:35:31.360Z,54.08
2024-02-20T10:38:02.757Z,41.80
2024-02-20T10:40:31.389Z,47.60
2024-02-20T10:42:58.711Z,43.78
2024-02-20T10:45:27.416Z,36.00
2024-02-20T10:47:57.248Z,36.80
2024-02-20T10:50:25.194Z,37.75
2024-02-20T10:52:56.185Z,44.60
2024-02-20T10:55:31.835Z,41.10
2024-02-20T10:58:04.779Z,33.58
2024-02-20T11:00:34.736Z,34.15
2024-02-20T11:03:03.615Z,35.20
2024-02-20T11:05:32.314Z,28.05
2024-02-20T11:08:11.199Z,35.10
2024-02-20T11:10:39.931Z,30.23
2024-02-20T11:13:24.050Z,32.15
2024-02-20T11:15:52.530Z,32.55
2024-02-20T11:18:21.950Z,33.97
2024-02-20T11:21:03.548Z,30.00
2024-02-20T11:23:33.807Z,30.13
2024-02-20T11:26:11.871Z,26.45
2024-02-20T11:28:39.563Z,26.35
2024-02-20T11:31:07.226Z,28.92
2024-02-20T11:33:35.024Z,32.58
2024-02-20T11:36:02.221Z,24.83
2024-02-20T11:38:29.035Z,25.50
2024-02-20T11:40:57.187Z,29.80
2024-02-20T11:43:24.145Z,28.33
2024-02-20T11:45:58.474Z,34.88
2024-02-20T11:48:25.299Z,29.15
2024-02-20T11:50:59.120Z,24.55
2024-02-20T11:53:26.809Z,29.88
2024-02-20T11:55:54.446Z,29.83
2024-02-20T11:58:26.810Z,22.92
2024-02-20T12:01:02.682Z,23.25
2024-02-20T12:03:34.889Z,27.77
2024-02-20T12:06:06.993Z,27.55
2024-02-20T12:08:46.066Z,32.05
2024-02-20T12:11:22.196Z,34.67
2024-02-20T12:13:52.763Z,31.52
2024-02-20T12:16:26.944Z,30.08
2024-02-20T12:18:55.270Z,29.65
2024-02-20T12:21:30.074Z,26.70
2024-02-20T12:23:58.586Z,29.10
2024-02-20T12:26:26.728Z,30.25
2024-02-20T12:28:55.718Z,35.58
2024-02-20T12:31:27.824Z,30.58
2024-02-20T12:33:55.037Z,34.67
2024-02-20T12:36:22.187Z,30.98
2024-02-20T12:38:48.927Z,22.48
2024-02-20T12:41:16.600Z,28.95
2024-02-20T12:43:43.416Z,26.08
2024-02-20T12:46:10.455Z,33.45
2024-02-20T12:48:39.253Z,34.78
2024-02-20T12:51:06.107Z,29.08
2024-02-20T12:53:33.768Z,29.95
2024-02-20T12:56:01.457Z,25.25
2024-02-20T12:58:28.613Z,25.60
2024-02-20T13:00:55.469Z,40.58
2024-02-20T13:03:24.742Z,34.05
2024-02-20T13:05:51.482Z,36.85
2024-02-20T13:08:18.239Z,29.02
2024-02-20T13:10:45.252Z,29.60
2024-02-20T13:13:12.221Z,23.00
2024-02-20T13:15:39.068Z,21.65
2024-02-20T13:18:06.028Z,22.85
2024-02-20T13:20:34.136Z,31.13
2024-02-20T13:23:01.296Z,20.85
2024-02-20T13:25:28.265Z,22.23
2024-02-20T13:27:55.066Z,28.92
2024-02-20T13:30:21.831Z,22.65
2024-02-20T13:32:48.676Z,26.20
2024-02-20T13:35:19.319Z,28.50
2024-02-20T13:37:48.736Z,36.80
2024-02-20T13:40:16.333Z,20.73
2024-02-20T13:42:43.102Z,21.40
2024-02-20T13:45:10.380Z,27.00
2024-02-20T13:47:37.257Z,33.08
2024-02-20T13:50:05.961Z,18.95
2024-02-20T13:52:33.056Z,32.92
2024-02-20T13:54:59.938Z,23.02
2024-02-20T13:57:26.723Z,26.30
2024-02-20T13:59:53.473Z,28.77
2024-02-20T14:02:20.789Z,26.38
2024-02-20T14:04:48.593Z,17.90
2024-02-20T14:07:16.263Z,24.27
2024-02-20T14:09:43.112Z,24.73
2024-02-20T14:12:10.049Z,29.35
2024-02-20T14:14:37.053Z,25.27
2024-02-20T14:17:03.814Z,24.23
2024-02-20T14:19:31.279Z,19.58
2024-02-20T14:21:58.240Z,29.52
2024-02-20T14:24:25.017Z,24.23
2024-02-20T14:26:51.701Z,20.05
2024-02-20T14:29:21.496Z,26.27
2024-02-20T14:31:49.098Z,19.42
2024-02-20T14:34:16.233Z,20.45
2024-02-20T14:36:43.995Z,25.27
2024-02-20T14:39:11.728Z,22.38
2024-02-20T14:41:41.307Z,23.05
2024-02-20T14:44:08.174Z,17.13
2024-02-20T14:46:35.280Z,12.88
2024-02-20T14:49:02.214Z,16.10
2024-02-20T14:51:28.997Z,22.80
2024-02-20T14:53:55.827Z,22.70
2024-02-20T14:56:22.521Z,22.15
2024-02-20T14:58:49.316Z,19.23
2024-02-20T15:01:25.547Z,18.17
2024-02-20T15:03:52.724Z,22.88
2024-02-20T15:06:20.042Z,13.45
2024-02-20T15:08:48.211Z,18.20
2024-02-20T15:11:16.217Z,19.60
2024-02-20T15:13:43.667Z,16.02
2024-02-20T15:16:12.177Z,20.58
2024-02-20T15:18:40.187Z,23.73
2024-02-20T15:21:06.974Z,21.58
2024-02-20T15:23:33.733Z,22.25
2024-02-20T15:26:04.408Z,16.52
2024-02-20T15:28:31.295Z,15.77
2024-02-20T15:30:58.107Z,25.85
2024-02-20T15:33:24.997Z,19.90
2024-02-20T15:35:51.927Z,22.00
2024-02-20T15:38:19.082Z,22.58
2024-02-20T15:40:46.578Z,26.92
2024-02-20T15:43:18.163Z,24.10
2024-02-20T15:45:46.139Z,23.95
2024-02-20T15:48:14.630Z,21.52
2024-02-20T15:50:45.055Z,19.98
2024-02-20T15:53:20.298Z,23.40
2024-02-20T15:55:47.774Z,23.27
2024-02-20T15:58:23.329Z,17.70
2024-02-20T16:00:51.924Z,19.20
2024-02-20T16:03:19.108Z,23.55
2024-02-20T16:05:46.700Z,24.75
2024-02-20T16:08:16.613Z,20.30
2024-02-20T16:10:44.945Z,19.70
2024-02-20T16:13:11.796Z,21.30
2024-02-20T16:15:38.527Z,24.30
2024-02-20T16:18:05.498Z,18.88
2024-02-20T16:20:33.557Z,19.23
2024-02-20T16:23:02.650Z,24.65
2024-02-20T16:25:29.569Z,24.98
2024-02-20T16:27:56.383Z,20.88
2024-02-20T16:30:23.129Z,23.20
2024-02-20T16:32:49.905Z,18.55
2024-02-20T16:35:17.264Z,31.48
2024-02-20T16:37:44.306Z,31.70
2024-02-20T16:40:12.002Z,29.25
2024-02-20T16:42:38.819Z,19.70
2024-02-20T16:45:06.289Z,26.45
2024-02-20T16:47:34.553Z,20.15
2024-02-20T16:50:01.514Z,23.90
2024-02-20T16:52:28.467Z,23.50
2024-02-20T16:54:56.324Z,21.15
2024-02-20T16:57:23.347Z,18.05
2024-02-20T16:59:50.131Z,26.20
2024-02-20T17:02:17.070Z,20.70
2024-02-20T17:04:45.489Z,20.35
2024-02-20T17:07:12.600Z,21.17
2024-02-20T17:09:39.866Z,22.40
2024-02-20T17:12:07.992Z,25.40
2024-02-20T17:14:34.780Z,21.33
2024-02-20T17:17:03.102Z,20.05
2024-02-20T17:19:30.019Z,17.70
2024-02-20T17:21:56.835Z,22.67
2024-02-20T17:24:23.498Z,18.33
2024-02-20T17:26:51.977Z,15.00
2024-02-20T17:29:19.738Z,17.20
2024-02-20T17:31:46.602Z,22.25
2024-02-20T17:34:13.838Z,21.27
2024-02-20T17:36:40.796Z,26.33
2024-02-20T17:39:09.821Z,20.40
2024-02-20T17:41:38.356Z,18.75
2024-02-20T17:44:05.388Z,19.40
2024-02-20T17:46:32.129Z,24.92
2024-02-20T17:48:59.414Z,20.88
2024-02-20T17:51:26.531Z,23.00
2024-02-20T17:53:54.026Z,28.60
2024-02-20T17:56:21.342Z,25.48
2024-02-20T17:58:48.420Z,22.88
2024-02-20T18:01:19.263Z,30.23
2024-02-20T18:03:48.548Z,24.08
2024-02-20T18:06:15.269Z,25.40
2024-02-20T18:08:42.086Z,28.77
2024-02-20T18:11:09.195Z,29.38
2024-02-20T18:13:36.409Z,22.52
2024-02-20T18:16:03.380Z,23.95
2024-02-20T18:18:31.709Z,22.08
2024-02-20T18:21:00.982Z,21.63
2024-02-20T18:23:28.102Z,22.60
2024-02-20T18:25:55.107Z,27.15
2024-02-20T18:28:22.489Z,24.25
2024-02-20T18:30:49.388Z,34.63
2024-02-20T18:33:16.260Z,16.73
2024-02-20T18:35:43.241Z,31.27
2024-02-20T18:38:10.029Z,23.08
2024-02-20T18:40:36.869Z,32.92
2024-02-20T18:43:04.180Z,32.38
2024-02-20T18:45:30.902Z,30.92
2024-02-20T18:47:57.859Z,28.70
2024-02-20T18:50:24.958Z,30.38
2024-02-20T18:52:52.475Z,24.90
2024-02-20T18:55:19.441Z,24.95
2024-02-20T18:57:46.179Z,35.40
2024-02-20T19:00:14.730Z,34.95
2024-02-20T19:02:41.664Z,27.40
2024-02-20T19:05:09.225Z,29.85
2024-02-20T19:07:36.319Z,33.97
2024-02-20T19:10:04.330Z,33.55
2024-02-20T19:12:31.122Z,35.53
2024-02-20T19:14:57.972Z,28.63
2024-02-20T19:17:24.626Z,34.92
2024-02-20T19:19:51.475Z,32.03
2024-02-20T19:22:18.467Z,34.67
2024-02-20T19:24:45.419Z,34.90
2024-02-20T19:27:12.184Z,38.40
2024-02-20T19:29:38.959Z,29.10
2024-02-20T19:32:07.108Z,34.30
2024-02-20T19:34:36.494Z,30.35
2024-02-20T19:37:03.380Z,33.28
2024-02-20T19:39:30.133Z,39.75
2024-02-20T19:41:56.909Z,33.97
2024-02-20T19:44:25.648Z,33.83
2024-02-20T19:46:53.775Z,32.40
2024-02-20T19:49:21.956Z,34.50
2024-02-20T19:51:48.781Z,33.80
2024-02-20T19:54:16.273Z,40.60
2024-02-20T19:56:43.128Z,33.40
2024-02-20T19:59:18.288Z,31.35
2024-02-20T20:01:47.277Z,32.42
2024-02-20T20:04:14.579Z,36.88
2024-02-20T20:06:47.905Z,39.92
2024-02-20T20:09:15.797Z,31.45
2024-02-20T20:11:44.133Z,34.53
2024-02-20T20:14:11.750Z,37.90
2024-02-20T20:16:41.760Z,36.70
2024-02-20T20:19:09.771Z,31.90
2024-02-20T20:21:36.941Z,30.65
2024-02-20T20:24:13.650Z,23.50
2024-02-20T20:26:45.357Z,32.42
2024-02-20T20:29:12.212Z,38.00
2024-02-20T20:31:40.635Z,38.25
2024-02-20T20:34:07.788Z,26.83
2024-02-20T20:36:36.641Z,31.17
2024-02-20T20:39:05.701Z,34.15
2024-02-20T20:41:32.596Z,37.83
2024-02-20T20:44:00.925Z,41.85
2024-02-20T20:46:28.029Z,38.50
2024-02-20T20:48:54.838Z,43.30
2024-02-20T20:51:21.680Z,32.20
2024-02-20T20:53:48.491Z,37.17
2024-02-20T20:56:15.341Z,38.13
2024-02-20T20:58:42.477Z,34.38
2024-02-20T21:01:09.560Z,35.70
2024-02-20T21:03:36.504Z,37.92
2024-02-20T21:06:06.487Z,35.28
2024-02-20T21:08:33.315Z,37.90
2024-02-20T21:11:00.323Z,36.05
2024-02-20T21:13:27.404Z,40.08
2024-02-20T21:15:56.672Z,37.38
2024-02-20T21:18:23.522Z,35.13
2024-02-20T21:20:50.580Z,35.53
2024-02-20T21:23:17.958Z,46.17
2024-02-20T21:25:48.809Z,34.00
2024-02-20T21:28:15.695Z,34.13
2024-02-20T21:30:45.870Z,37.95
2024-02-20T21:33:13.277Z,35.53
2024-02-20T21:35:40.361Z,38.58
2024-02-20T21:38:07.890Z,34.40
2024-02-20T21:40:36.156Z,36.47
2024-02-20T21:43:03.288Z,36.75
2024-02-20T21:45:30.063Z,39.58
2024-02-20T21:47:56.880Z,33.72
2024-02-20T21:50:23.815Z,38.95
2024-02-20T21:52:52.327Z,38.60
2024-02-20T21:55:19.772Z,35.70
2024-02-20T21:57:46.675Z,38.67
2024-02-20T22:00:14.091Z,28.92
2024-02-20T22:02:40.969Z,41.00
2024-02-20T22:05:08.256Z,35.92
2024-02-20T22:07:35.141Z,32.10
2024-02-20T22:10:02.043Z,30.33
2024-02-20T22:12:28.755Z,31.42
2024-02-20T22:14:55.539Z,37.33
2024-02-20T22:17:22.501Z,32.15
2024-02-20T22:19:49.399Z,39.63
2024-02-20T22:22:16.582Z,36.42
2024-02-20T22:24:43.392Z,34.28
2024-02-20T22:27:10.854Z,34.83
2024-02-20T22:29:38.300Z,35.72
2024-02-20T22:32:05.383Z,40.13
2024-02-20T22:34:32.326Z,26.35
2024-02-20T22:37:00.017Z,36.88
2024-02-20T22:39:26.936Z,41.95
2024-02-20T22:41:53.694Z,41.80
2024-02-20T22:44:20.826Z,34.30
2024-02-20T22:46:49.299Z,38.70
2024-02-20T22:49:16.260Z,39.03
2024-02-20T22:51:43.088Z,31.75
2024-02-20T22:54:09.829Z,30.92
2024-02-20T22:56:36.595Z,40.95
2024-02-20T22:59:03.416Z,39.97
2024-02-20T23:01:31.483Z,37.72
2024-02-20T23:03:58.307Z,40.03
2024-02-20T23:06:25.289Z,42.35
2024-02-20T23:08:52.203Z,38.78
2024-02-20T23:11:19.203Z,39.70
2024-02-20T23:13:46.011Z,39.47
2024-02-20T23:16:12.897Z,37.47
2024-02-20T23:18:39.826Z,39.38
2024-02-20T23:21:06.616Z,36.40
2024-02-20T23:23:33.608Z,43.38
2024-02-20T23:26:00.443Z,47.97
2024-02-20T23:28:27.266Z,49.58
2024-02-20T23:30:54.116Z,37.03
2024-02-20T23:33:21.220Z,37.90
2024-02-20T23:35:48.001Z,39.85
2024-02-20T23:38:14.760Z,38.75
2024-02-20T23:40:41.456Z,40.60
2024-02-20T23:43:08.157Z,48.13
2024-02-20T23:45:34.831Z,41.28
2024-02-20T23:48:01.668Z,41.78
2024-02-20T23:50:28.465Z,39.55
2024-02-20T23:52:55.652Z,45.53
2024-02-20T23:55:23.406Z,38.00
2024-02-20T23:57:50.253Z,38.75
